PST,Max TemperatureF,Mean TemperatureF,Min TemperatureF,Max Dew PointF,MeanDew PointF,Min DewpointF,Max Humidity, Mean Humidity, Min Humidity, Max Sea Level PressureIn, Mean Sea Level PressureIn, Min Sea Level PressureIn, Max VisibilityMiles, Mean VisibilityMiles, Min VisibilityMiles, Max Wind SpeedMPH, Mean Wind SpeedMPH, Max Gust SpeedMPH,PrecipitationIn, CloudCover, Events, WindDirDegrees
2013-11-1,68,52,35,25,23,19,60,33,19,30.26,30.20,30.15,10,10,8,18,10,25,0.00,0,,117
2013-11-2,68,50,32,32,26,19,70,39,18,30.16,30.05,29.97,10,9,5,17,9,21,0.00,0,,256
2013-11-3,55,47,39,39,35,32,81,65,47,30.01,29.95,29.90,10,7,3,20,14,25,0.00,1,,296
2013-11-4,50,39,28,32,27,23,81,61,37,30.07,29.94,29.86,10,8,5,16,8,22,0.00,2,,299
2013-11-5,55,40,26,25,12,5,86,34,14,30.29,30.19,30.08,10,10,8,21,8,25,0.00,0,,119
2013-11-6,62,48,33,14,9,5,33,19,12,30.36,30.32,30.29,10,10,8,23,13,31,0.00,0,,117
2013-11-7,66,50,35,25,18,14,52,27,15,30.30,30.23,30.16,10,10,8,18,10,24,0.00,0,,110
2013-11-8,69,50,32,28,20,10,55,38,11,30.16,30.10,30.05,10,8,5,17,4,21,0.00,2,,344
2013-11-9,69,50,30,14,10,5,48,24,8,30.16,30.11,30.08,10,10,8,16,5,24,0.00,0,,115
2013-11-10,68,54,39,16,13,10,33,22,12,30.22,30.19,30.15,10,10,8,17,9,23,0.00,0,,120
2013-11-11,69,54,39,18,15,12,39,22,12,30.29,30.22,30.18,10,10,7,26,12,32,0.00,0,,121
2013-11-12,68,54,39,32,17,10,45,23,11,30.36,30.30,30.27,10,9,4,20,7,24,0.00,2,,102
2013-11-13,64,48,33,37,27,18,70,49,26,30.31,30.23,30.18,10,6,3,17,4,,0.00,0,,8
2013-11-14,71,52,32,36,29,19,75,50,14,30.18,30.05,29.88,10,7,5,21,4,26,0.00,0,,285
2013-11-15,51,43,35,39,37,32,100,74,50,29.87,29.79,29.74,7,4,2,20,12,26,0.00,3,,291
2013-11-16,53,43,33,37,33,28,100,70,41,29.95,29.83,29.77,10,7,1,29,12,37,0.00,1,Rain,297
2013-11-17,59,46,32,34,31,28,87,63,34,30.14,30.04,29.94,10,9,7,13,7,18,0.00,0,,116
2013-11-18,59,47,35,37,34,32,87,65,42,30.17,30.12,30.08,10,9,5,15,9,20,0.00,0,,110
2013-11-19,50,44,37,41,38,36,100,83,62,30.12,30.04,29.99,9,5,2,21,12,24,0.00,1,,311
2013-11-20,55,48,41,46,41,37,100,81,54,29.99,29.93,29.88,10,7,2,20,12,23,0.02,6,Rain,312
2013-11-21,51,44,37,46,43,34,100,94,71,29.96,29.89,29.85,10,4,0,17,10,21,0.76,8,Fog-Rain-Thunderstorm,300
2013-11-22,42,40,39,36,32,28,87,71,61,30.00,29.96,29.92,10,9,4,25,14,36,0.00,7,Rain,92
2013-11-23,44,40,37,36,34,30,93,79,61,30.13,30.06,29.98,10,10,6,20,12,28,0.00,7,Rain,121
2013-11-24,50,41,32,36,33,30,100,74,50,30.26,30.18,30.12,10,10,7,12,7,,0.00,3,,104
2013-11-25,59,42,26,37,31,25,100,75,29,30.32,30.29,30.25,10,8,4,14,4,21,0.00,0,,107
2013-11-26,59,47,35,32,28,25,75,45,27,30.30,30.24,30.16,10,10,9,24,12,31,0.00,0,,115
2013-11-27,55,48,42,30,29,27,57,46,38,30.16,30.05,29.97,10,10,5,28,14,38,0.00,0,,119
2013-11-28,53,47,41,30,28,27,61,47,38,30.13,30.02,29.96,10,10,9,24,14,39,0.00,3,,112
2013-11-29,55,47,39,32,29,28,70,51,36,30.27,30.20,30.12,10,10,8,22,10,29,0.00,5,,114
2013-11-30,59,46,32,34,29,25,87,61,27,30.32,30.26,30.21,10,9,4,13,3,16,0.00,2,,144